createdAt,value
2022-11-15T00:02:20.402Z,101133.75
2022-11-15T00:05:09.436Z,101136.50
2022-11-15T00:07:57.568Z,101137.13
2022-11-15T00:10:47.006Z,101148.47
2022-11-15T00:13:35.965Z,101148.16
2022-11-15T00:16:24.924Z,101145.38
2022-11-15T00:19:13.262Z,101153.66
2022-11-15T00:22:02.302Z,101153.38
2022-11-15T00:24:50.639Z,101156.13
2022-11-15T00:27:39.760Z,101151.41
2022-11-15T00:30:29.262Z,101167.97
2022-11-15T00:33:18.240Z,101163.56
2022-11-15T00:36:15.024Z,101169.09
2022-11-15T00:39:04.177Z,101165.81
2022-11-15T00:41:52.512Z,101166.31
2022-11-15T00:44:41.871Z,101164.41
2022-11-15T00:47:31.028Z,101169.09
2022-11-15T00:50:20.416Z,101180.44
2022-11-15T00:53:08.496Z,101184.00
2022-11-15T00:55:57.228Z,101190.34
2022-11-15T00:58:47.892Z,101184.81
2022-11-15T01:01:37.243Z,101192.78
2022-11-15T01:04:26.545Z,101199.94
2022-11-15T01:07:15.653Z,101194.41
2022-11-15T01:10:04.746Z,101204.94
2022-11-15T01:12:53.472Z,101210.16
2022-11-15T01:15:46.094Z,101210.16
2022-11-15T01:18:34.509Z,101217.00
2022-11-15T01:21:23.930Z,101211.16
2022-11-15T01:24:16.459Z,101215.03
2022-11-15T01:27:05.503Z,101215.03
2022-11-15T01:29:54.071Z,101216.91
2022-11-15T01:32:43.330Z,101220.78
2022-11-15T01:35:31.803Z,101228.22
2022-11-15T01:38:20.144Z,101220.78
2022-11-15T01:41:09.340Z,101227.94
2022-11-15T01:44:00.394Z,101229.78
2022-11-15T01:46:51.231Z,101229.78
2022-11-15T01:49:43.864Z,101227.28
2022-11-15T01:52:36.163Z,101230.06
2022-11-15T01:55:28.357Z,101230.06
2022-11-15T01:58:17.161Z,101227.28
2022-11-15T02:01:05.765Z,101228.94
2022-11-15T02:04:09.318Z,101227.28
2022-11-15T02:06:58.319Z,101226.19
2022-11-15T02:09:49.023Z,101235.28
2022-11-15T02:12:38.323Z,101233.34
2022-11-15T02:15:39.841Z,101236.94
2022-11-15T02:18:44.555Z,101229.44
2022-11-15T02:21:52.361Z,101232.22
2022-11-15T02:25:05.650Z,101226.69
2022-11-15T02:28:54.827Z,101227.53
2022-11-15T02:31:55.239Z,101235.81
2022-11-15T02:35:25.628Z,101234.38
2022-11-15T02:38:42.836Z,101224.47
2022-11-15T02:41:45.006Z,101225.28
2022-11-15T02:44:47.097Z,101226.09
2022-11-15T02:47:44.544Z,101223.84
2022-11-15T02:50:35.318Z,101228.53
2022-11-15T02:53:29.231Z,101229.38
2022-11-15T02:56:17.670Z,101222.72
2022-11-15T02:59:29.148Z,101217.50
2022-11-15T03:02:39.431Z,101209.75
2022-11-15T03:05:28.019Z,101212.25
2022-11-15T03:08:37.367Z,101213.88
2022-11-15T03:11:27.103Z,101209.47
2022-11-15T03:14:29.533Z,101208.38
2022-11-15T03:17:32.039Z,101205.59
2022-11-15T03:20:22.492Z,101206.91
2022-11-15T03:23:13.508Z,101203.66
2022-11-15T03:26:04.303Z,101198.66
2022-11-15T03:28:52.762Z,101204.97
2022-11-15T03:31:51.390Z,101196.41
2022-11-15T03:35:07.478Z,101193.31
2022-11-15T03:37:58.636Z,101185.06
2022-11-15T03:40:54.338Z,101189.16
2022-11-15T03:43:56.564Z,101188.31
2022-11-15T03:47:05.281Z,101180.56
2022-11-15T03:50:03.729Z,101173.41
2022-11-15T03:52:54.646Z,101167.56
2022-11-15T03:55:43.246Z,101172.28
2022-11-15T03:58:31.758Z,101163.69
2022-11-15T04:01:20.073Z,101150.72
2022-11-15T04:04:08.576Z,101147.97
2022-11-15T04:06:57.043Z,101134.97
2022-11-15T04:10:03.546Z,101141.00
2022-11-15T04:12:52.353Z,101136.81
2022-11-15T04:15:41.100Z,101141.19
2022-11-15T04:18:29.526Z,101137.31
2022-11-15T04:21:36.228Z,101132.31
2022-11-15T04:24:24.850Z,101124.88
2022-11-15T04:27:15.969Z,101122.91
2022-11-15T04:30:04.490Z,101115.47
2022-11-15T04:32:53.027Z,101117.91
2022-11-15T04:35:42.038Z,101112.38
2022-11-15T04:38:30.511Z,101111.25
2022-11-15T04:41:19.374Z,101104.09
2022-11-15T04:44:08.269Z,101099.38
2022-11-15T04:46:56.986Z,101096.34
2022-11-15T04:49:47.224Z,101089.69
2022-11-15T04:52:35.934Z,101078.66
2022-11-15T04:55:24.572Z,101074.78
2022-11-15T04:58:13.520Z,101074.44
2022-11-15T05:01:02.280Z,101067.00
2022-11-15T05:04:09.198Z,101056.16
2022-11-15T05:06:57.958Z,101060.03
2022-11-15T05:09:46.794Z,101058.41
2022-11-15T05:12:35.438Z,101057.28
2022-11-15T05:15:24.153Z,101044.28
2022-11-15T05:18:12.594Z,101032.63
2022-11-15T05:21:07.690Z,101038.47
2022-11-15T05:23:57.718Z,101039.25
2022-11-15T05:26:46.172Z,101028.22
2022-11-15T05:29:34.797Z,101023.22
2022-11-15T05:32:23.956Z,101017.69
2022-11-15T05:35:19.788Z,101011.88
2022-11-15T05:38:08.806Z,101000.00
2022-11-15T05:40:58.206Z,101002.44
2022-11-15T05:43:47.500Z,101008.78
2022-11-15T05:46:37.914Z,100991.91
2022-11-15T05:49:31.273Z,100992.75
2022-11-15T05:52:24.016Z,100985.25
2022-11-15T05:55:13.346Z,100967.06
2022-11-15T05:58:01.746Z,100967.56
2022-11-15T06:00:51.135Z,100970.34
2022-11-15T06:03:39.783Z,100954.59
2022-11-15T06:06:28.358Z,100956.72
2022-11-15T06:09:16.767Z,100945.19
2022-11-15T06:12:05.255Z,100953.16
2022-11-15T06:14:53.862Z,100946.81
2022-11-15T06:17:42.409Z,100931.88
2022-11-15T06:20:32.278Z,100929.31
2022-11-15T06:23:20.881Z,100921.03
2022-11-15T06:26:09.113Z,100920.69
2022-11-15T06:28:57.917Z,100910.97
2022-11-15T06:31:46.547Z,100906.28
2022-11-15T06:34:35.077Z,100907.06
2022-11-15T06:37:23.292Z,100907.91
2022-11-15T06:40:13.195Z,100900.16
2022-11-15T06:43:03.021Z,100895.13
2022-11-15T06:45:51.471Z,100886.03
2022-11-15T06:48:40.083Z,100893.16
2022-11-15T06:51:28.568Z,100879.03
2022-11-15T06:54:16.861Z,100884.09
2022-11-15T06:57:07.298Z,100874.19
2022-11-15T06:59:55.552Z,100871.09
2022-11-15T07:02:43.925Z,100873.84
2022-11-15T07:05:32.766Z,100871.09
2022-11-15T07:08:21.227Z,100862.00
2022-11-15T07:11:12.035Z,100863.13
2022-11-15T07:14:00.552Z,100852.25
2022-11-15T07:16:48.862Z,100852.25
2022-11-15T07:19:37.786Z,100846.41
2022-11-15T07:22:26.037Z,100845.59
2022-11-15T07:25:14.953Z,100849.16
2022-11-15T07:28:04.442Z,100843.66
2022-11-15T07:30:53.512Z,100839.47
2022-11-15T07:33:42.277Z,100837.50
2022-11-15T07:36:30.852Z,100831.97
2022-11-15T07:39:19.540Z,100837.19
2022-11-15T07:42:27.070Z,100837.50
2022-11-15T07:45:15.673Z,100833.09
2022-11-15T07:48:04.136Z,100834.72
2022-11-15T07:50:52.833Z,100831.97
2022-11-15T07:53:41.378Z,100831.66
2022-11-15T07:56:29.964Z,100831.66
2022-11-15T07:59:18.222Z,100824.81
2022-11-15T08:02:07.174Z,100828.91
2022-11-15T08:04:56.127Z,100831.66
2022-11-15T08:07:44.838Z,100828.91
2022-11-15T08:10:36.450Z,100830.50
2022-11-15T08:13:29.261Z,100827.44
2022-11-15T08:16:17.952Z,100823.56
2022-11-15T08:19:06.622Z,100825.47
2022-11-15T08:21:55.088Z,100820.78
2022-11-15T08:24:43.865Z,100819.16
2022-11-15T08:27:32.421Z,100821.09
2022-11-15T08:30:20.811Z,100813.63
2022-11-15T08:33:09.613Z,100818.03
2022-11-15T08:36:01.382Z,100812.50
2022-11-15T08:38:49.990Z,100815.91
2022-11-15T08:41:41.364Z,100821.09
2022-11-15T08:44:29.858Z,100817.53
2022-11-15T08:47:18.665Z,100812.34
2022-11-15T08:50:07.736Z,100800.97
2022-11-15T08:52:56.382Z,100806.97
2022-11-15T08:55:44.925Z,100801.75
2022-11-15T08:58:34.059Z,100808.13
2022-11-15T09:01:24.263Z,100805.84
2022-11-15T09:04:13.019Z,100799.19
2022-11-15T09:07:02.430Z,100792.03
2022-11-15T09:09:50.985Z,100792.84
2022-11-15T09:12:40.231Z,100789.28
2022-11-15T09:15:28.869Z,100792.03
2022-11-15T09:18:17.596Z,100792.84
2022-11-15T09:21:07.651Z,100792.03
2022-11-15T09:23:56.468Z,100796.75
2022-11-15T09:29:49.278Z,100795.94
2022-11-15T09:32:39.574Z,100794.81
2022-11-15T09:35:28.117Z,100796.75
2022-11-15T09:38:16.655Z,100804.38
2022-11-15T09:41:17.615Z,100806.34
2022-11-15T09:44:25.342Z,100819.31
2022-11-15T09:47:38.030Z,100819.03
2022-11-15T09:50:52.596Z,100807.97
2022-11-15T09:54:13.597Z,100821.28
2022-11-15T09:56:26.426Z,100820.47
2022-11-15T09:59:18.158Z,100820.94
2022-11-15T10:01:51.346Z,100815.75
2022-11-15T10:04:22.178Z,100822.91
2022-11-15T10:07:18.757Z,100837.03
2022-11-15T10:09:59.756Z,100844.19
2022-11-15T10:12:31.637Z,100841.41
2022-11-15T10:15:16.448Z,100847.28
2022-11-15T10:18:04.916Z,100840.28
2022-11-15T10:20:44.169Z,100836.72
2022-11-15T10:23:19.463Z,100845.00
2022-11-15T10:25:50.145Z,100847.44
2022-11-15T10:28:36.094Z,100848.22
2022-11-15T10:31:08.739Z,100853.75
2022-11-15T10:33:44.177Z,100866.44
2022-11-15T10:36:17.172Z,100866.75
2022-11-15T10:38:53.491Z,100859.28
2022-11-15T10:41:34.595Z,100864.81
2022-11-15T10:44:10.478Z,100860.44
2022-11-15T10:46:47.273Z,100864.81
2022-11-15T10:49:25.346Z,100872.28
2022-11-15T10:51:57.341Z,100871.47
2022-11-15T10:54:39.180Z,100878.59
2022-11-15T10:57:18.109Z,100880.56
2022-11-15T10:59:57.347Z,100885.28
2022-11-15T11:02:42.651Z,100886.91
2022-11-15T11:05:41.681Z,100883.66
2022-11-15T11:08:15.049Z,100877.81
2022-11-15T11:11:04.422Z,100882.53
2022-11-15T11:13:37.704Z,100885.28
2022-11-15T11:16:36.386Z,100877.47
2022-11-15T11:19:39.900Z,100886.91
2022-11-15T11:22:27.932Z,100896.00
2022-11-15T11:25:28.959Z,100893.25
2022-11-15T11:28:23.215Z,100894.03
2022-11-15T11:31:11.343Z,100902.31
2022-11-15T11:34:19.009Z,100918.09
2022-11-15T11:37:01.063Z,100934.66
2022-11-15T11:40:10.206Z,100942.13
2022-11-15T11:43:02.242Z,100952.03
2022-11-15T11:45:37.762Z,100959.53
2022-11-15T11:48:23.069Z,100960.31
2022-11-15T11:50:53.538Z,100969.44
2022-11-15T11:53:34.771Z,100969.44
2022-11-15T11:56:20.907Z,100972.19
2022-11-15T11:58:54.209Z,100975.75
2022-11-15T12:01:29.331Z,100978.53
2022-11-15T12:04:05.478Z,100976.88
2022-11-15T12:06:53.773Z,100974.63
2022-11-15T12:09:45.638Z,100978.53
2022-11-15T12:13:08.546Z,100984.03
2022-11-15T12:16:10.871Z,100982.91
2022-11-15T12:18:41.659Z,100978.53
2022-11-15T12:21:28.338Z,100978.53
2022-11-15T12:24:10.738Z,100984.03
2022-11-15T12:26:50.808Z,100977.72
2022-11-15T12:29:31.874Z,100993.47
2022-11-15T12:32:06.917Z,100991.19
2022-11-15T12:34:57.070Z,101004.19
2022-11-15T12:37:43.722Z,101005.00
2022-11-15T12:40:24.983Z,101017.69
2022-11-15T12:43:05.913Z,101016.88
2022-11-15T12:45:42.168Z,101021.28
2022-11-15T12:48:21.622Z,101020.16
2022-11-15T12:51:01.613Z,101017.38
2022-11-15T12:53:38.082Z,101015.75
2022-11-15T12:56:08.230Z,101029.56
2022-11-15T12:59:01.172Z,101030.38
2022-11-15T13:01:37.352Z,101041.41
2022-11-15T13:04:22.454Z,101034.25
2022-11-15T13:07:07.149Z,101048.56
2022-11-15T13:09:40.354Z,101055.22
2022-11-15T13:12:31.391Z,101069.34
2022-11-15T13:15:25.139Z,101075.69
2022-11-15T13:18:00.066Z,101083.66
2022-11-15T13:20:35.738Z,101079.91
2022-11-15T13:23:11.804Z,101067.72
2022-11-15T13:34:54.217Z,101102.69
2022-11-15T13:37:24.290Z,101112.09
2022-11-15T13:39:54.728Z,101113.09
2022-11-15T13:42:25.484Z,101107.56
2022-11-15T13:45:04.172Z,101107.13
2022-11-15T13:47:34.898Z,101103.91
2022-11-15T13:50:09.714Z,101103.91
2022-11-15T13:52:46.367Z,101115.03
2022-11-15T13:55:26.486Z,101114.28
2022-11-15T13:58:03.126Z,101122.81
2022-11-15T14:00:47.604Z,101124.22
2022-11-15T14:03:34.727Z,101131.03
2022-11-15T14:06:04.853Z,101138.88
2022-11-15T14:08:35.239Z,101147.00
2022-11-15T14:11:16.128Z,101152.97
2022-11-15T14:14:22.785Z,101159.28
2022-11-15T14:16:57.066Z,101156.66
2022-11-15T14:19:27.247Z,101149.56
2022-11-15T14:22:18.300Z,101146.25
2022-11-15T14:25:07.536Z,101153.50
2022-11-15T14:27:38.608Z,101165.06
2022-11-15T14:30:09.707Z,101173.25
2022-11-15T14:32:58.061Z,101172.66
2022-11-15T14:35:28.614Z,101180.13
2022-11-15T14:37:58.802Z,101176.56
2022-11-15T14:40:28.850Z,101181.75
2022-11-15T14:42:58.918Z,101179.00
2022-11-15T14:45:31.341Z,101178.19
2022-11-15T14:48:01.574Z,101173.88
2022-11-15T14:50:32.029Z,101168.34
2022-11-15T14:53:02.289Z,101159.44
2022-11-15T14:55:35.637Z,101157.47
2022-11-15T14:58:07.359Z,101164.81
2022-11-15T15:00:42.917Z,101166.94
2022-11-15T15:03:13.350Z,101170.34
2022-11-15T15:05:46.316Z,101185.91
2022-11-15T15:08:16.472Z,101185.78
2022-11-15T15:10:48.699Z,101176.47
2022-11-15T15:13:22.572Z,101154.38
2022-11-15T15:15:54.659Z,101159.91
2022-11-15T15:18:25.679Z,101157.97
2022-11-15T15:21:06.410Z,101159.72
2022-11-15T15:23:38.827Z,101160.75
2022-11-15T15:26:09.157Z,101156.84
2022-11-15T15:28:40.409Z,101152.28
2022-11-15T15:31:12.826Z,101153.06
2022-11-15T15:33:43.118Z,101142.47
2022-11-15T15:36:15.803Z,101146.34
2022-11-15T15:38:46.184Z,101143.59
2022-11-15T15:41:18.109Z,101149.75
2022-11-15T15:43:48.477Z,101152.00
2022-11-15T15:46:21.702Z,101142.41
2022-11-15T15:48:51.898Z,101146.78
2022-11-15T15:51:21.978Z,101147.13
2022-11-15T15:53:53.876Z,101138.00
2022-11-15T15:56:23.985Z,101131.97
2022-11-15T15:58:55.737Z,101128.09
2022-11-15T16:01:26.055Z,101124.81
2022-11-15T16:03:56.410Z,101137.81
2022-11-15T16:06:42.307Z,101123.19
2022-11-15T16:09:19.968Z,101121.88
2022-11-15T16:11:51.023Z,101119.13
2022-11-15T16:14:21.045Z,101121.06
2022-11-15T16:16:51.414Z,101122.19
2022-11-15T16:19:21.575Z,101109.53
2022-11-15T16:21:51.694Z,101110.31
2022-11-15T16:24:23.421Z,101104.00
2022-11-15T16:26:54.620Z,101110.94
2022-11-15T16:29:24.941Z,101109.81
2022-11-15T16:31:55.210Z,101109.34
2022-11-15T16:34:29.978Z,101110.94
2022-11-15T16:37:01.320Z,101108.19
2022-11-15T16:39:33.111Z,101105.75
2022-11-15T16:42:05.603Z,101107.72
2022-11-15T16:44:35.998Z,101107.72
2022-11-15T16:47:06.275Z,101100.56
2022-11-15T16:49:36.808Z,101092.78
2022-11-15T16:52:06.956Z,101090.63
2022-11-15T16:54:37.012Z,101083.16
2022-11-15T16:57:07.137Z,101085.41
2022-11-15T16:59:38.450Z,101079.88
2022-11-15T17:02:16.235Z,101079.88
2022-11-15T17:04:46.523Z,101079.88
2022-11-15T17:07:16.843Z,101079.06
2022-11-15T17:09:46.976Z,101069.69
2022-11-15T17:12:17.097Z,101061.41
2022-11-15T17:14:49.790Z,101060.03
2022-11-15T17:17:20.123Z,101053.72
2022-11-15T17:19:50.183Z,101042.66
2022-11-15T17:22:20.156Z,101037.66
2022-11-15T17:24:50.198Z,101030.00
2022-11-15T17:27:20.262Z,101031.63
2022-11-15T17:29:50.248Z,101024.13
2022-11-15T17:32:20.256Z,101026.91
2022-11-15T17:34:50.266Z,101023.66
2022-11-15T17:37:20.279Z,101018.44
2022-11-15T17:39:50.474Z,101005.16
2022-11-15T17:42:20.723Z,101004.63
2022-11-15T17:44:50.854Z,100999.13
2022-11-15T17:47:20.828Z,100993.59
2022-11-15T17:49:50.836Z,100989.22
2022-11-15T17:52:20.823Z,100990.84
2022-11-15T17:54:50.796Z,100982.88
2022-11-15T17:57:20.896Z,100980.94
2022-11-15T17:59:51.265Z,100979.78
2022-11-15T18:02:21.715Z,100964.69
2022-11-15T18:04:51.859Z,100969.09
2022-11-15T18:07:22.057Z,100967.97
2022-11-15T18:09:52.292Z,100959.69
2022-11-15T18:12:22.487Z,100963.06
2022-11-15T18:14:52.765Z,100947.31
2022-11-15T18:17:23.041Z,100946.50
2022-11-15T18:19:53.228Z,100945.38
2022-11-15T18:22:24.248Z,100935.78
2022-11-15T18:24:54.832Z,100936.59
2022-11-15T18:27:25.027Z,100925.53
2022-11-15T18:29:55.379Z,100919.22
2022-11-15T18:32:25.571Z,100918.41
2022-11-15T18:34:57.074Z,100915.31
2022-11-15T18:37:27.271Z,100920.81
2022-11-15T18:39:57.254Z,100909.50
2022-11-15T18:42:27.442Z,100907.69
2022-11-15T18:44:57.722Z,100905.09
2022-11-15T18:47:27.947Z,100900.38
2022-11-15T18:50:01.709Z,100897.94
2022-11-15T18:52:31.946Z,100893.22
2022-11-15T18:55:02.306Z,100885.78
2022-11-15T18:57:33.216Z,100890.47
2022-11-15T19:00:03.452Z,100883.03
2022-11-15T19:02:33.714Z,100882.19
2022-11-15T19:05:03.976Z,100873.44
2022-11-15T19:07:34.090Z,100875.88
2022-11-15T19:10:05.027Z,100869.84
2022-11-15T19:12:35.218Z,100869.84
2022-11-15T19:15:09.937Z,100856.88
2022-11-15T19:17:40.459Z,100845.84
2022-11-15T19:20:10.911Z,100847.25
2022-11-15T19:22:41.129Z,100849.72
2022-11-15T19:25:13.035Z,100833.47
2022-11-15T19:27:43.258Z,100835.94
2022-11-15T19:30:14.121Z,100831.53
2022-11-15T19:32:44.393Z,100822.94
2022-11-15T19:35:14.845Z,100827.66
2022-11-15T19:37:44.983Z,100826.81
2022-11-15T19:40:14.967Z,100823.75
2022-11-15T19:42:44.971Z,100821.28
2022-11-15T19:45:14.968Z,100814.16
2022-11-15T19:47:44.990Z,100815.28
2022-11-15T19:50:15.378Z,100813.34
2022-11-15T19:52:45.750Z,100815.59
2022-11-15T19:55:16.279Z,100818.88
2022-11-15T19:57:46.322Z,100813.34
2022-11-15T20:00:16.623Z,100815.59
2022-11-15T20:02:46.756Z,100819.16
2022-11-15T20:05:18.553Z,100816.75
2022-11-15T20:07:51.668Z,100825.03
2022-11-15T20:10:21.911Z,100825.03
2022-11-15T20:12:52.302Z,100830.53
2022-11-15T20:15:22.963Z,100833.31
2022-11-15T20:17:53.226Z,100832.16
2022-11-15T20:20:23.410Z,100836.06
2022-11-15T20:22:55.065Z,100838.81
2022-11-15T20:25:25.311Z,100843.22
2022-11-15T20:27:55.647Z,100847.09
2022-11-15T20:30:25.804Z,100849.06
2022-11-15T20:32:55.800Z,100863.66
2022-11-15T20:35:26.498Z,100856.50
2022-11-15T20:37:56.700Z,100852.63
2022-11-15T20:40:26.863Z,100852.94
2022-11-15T20:42:57.104Z,100852.94
2022-11-15T20:45:27.322Z,100853.25
2022-11-15T20:48:03.615Z,100846.94
2022-11-15T20:50:42.771Z,100838.94
2022-11-15T20:53:19.091Z,100848.84
2022-11-15T20:55:53.257Z,100850.81
2022-11-15T20:58:23.397Z,100848.84
2022-11-15T21:00:57.796Z,100849.69
2022-11-15T21:03:28.054Z,100862.66
2022-11-15T21:05:58.271Z,100850.81
2022-11-15T21:08:28.751Z,100857.97
2022-11-15T21:11:17.043Z,100859.09
2022-11-15T21:13:47.212Z,100857.13
2022-11-15T21:16:19.069Z,100862.66
2022-11-15T21:18:49.217Z,100861.03
2022-11-15T21:21:19.355Z,100861.03
2022-11-15T21:23:49.982Z,100856.63
2022-11-15T21:26:20.187Z,100856.97
2022-11-15T21:28:50.657Z,100870.44
2022-11-15T21:31:20.941Z,100867.19
2022-11-15T21:33:51.139Z,100868.00
2022-11-15T21:36:21.425Z,100867.19
2022-11-15T21:38:51.646Z,100864.44
2022-11-15T21:41:21.759Z,100864.75
2022-11-15T21:43:51.813Z,100863.94
2022-11-15T21:46:21.828Z,100869.47
2022-11-15T21:48:52.112Z,100870.25
2022-11-15T21:51:22.130Z,100880.16
2022-11-15T21:53:52.705Z,100874.66
2022-11-15T21:56:23.018Z,100886.00
2022-11-15T21:58:53.250Z,100887.66
2022-11-15T22:01:42.945Z,100882.13
2022-11-15T22:04:13.764Z,100879.03
2022-11-15T22:06:43.998Z,100894.78
2022-11-15T22:09:14.313Z,100893.16
2022-11-15T22:11:45.152Z,100888.78
2022-11-15T22:14:15.663Z,100900.59
2022-11-15T22:16:46.102Z,100902.56
2022-11-15T22:19:16.534Z,100913.91
2022-11-15T22:21:46.919Z,100901.75
2022-11-15T22:24:17.228Z,100903.38
2022-11-15T22:26:47.512Z,100904.19
2022-11-15T22:29:17.770Z,100896.72
2022-11-15T22:31:48.202Z,100908.59
2022-11-15T22:34:18.737Z,100909.72
2022-11-15T22:37:18.267Z,100913.09
2022-11-15T22:39:39.293Z,100920.53
2022-11-15T22:42:10.100Z,100918.78
2022-11-15T22:44:40.341Z,100924.31
2022-11-15T22:47:10.624Z,100919.91
2022-11-15T22:49:40.872Z,100926.28
2022-11-15T22:52:11.414Z,100929.03
2022-11-15T22:54:42.921Z,100935.34
2022-11-15T22:57:13.500Z,100938.66
2022-11-15T22:59:44.659Z,100943.22
2022-11-15T23:02:15.151Z,100951.50
2022-11-15T23:04:45.906Z,100955.38
2022-11-15T23:07:16.562Z,100953.53
2022-11-15T23:09:51.852Z,100959.25
2022-11-15T23:12:40.814Z,100961.69
2022-11-15T23:15:11.472Z,100965.28
2022-11-15T23:17:41.687Z,100962.53
2022-11-15T23:20:41.480Z,100975.19
2022-11-15T23:23:02.565Z,100976.00
2022-11-15T23:25:32.690Z,100971.28
2022-11-15T23:28:05.233Z,100981.50
2022-11-15T23:30:57.921Z,100987.03
2022-11-15T23:33:46.301Z,100988.34
2022-11-15T23:36:16.470Z,100994.97
2022-11-15T23:38:46.739Z,100995.81
2022-11-15T23:41:17.022Z,101006.84
2022-11-15T23:43:47.241Z,101010.72
2022-11-15T23:46:17.475Z,101006.34
2022-11-15T23:48:47.690Z,101017.03
2022-11-15T23:51:17.925Z,101022.56
2022-11-15T23:53:48.302Z,101022.56
2022-11-15T23:56:20.613Z,101024.19
2022-11-15T23:58:51.644Z,101027.28
